Meteo Giornale » Osservazioni meteo Italia » Firenze-Peretola

ore: 19:50 - Osservazioni Meteo Firenze-Peretola
Lat. 43° 48' N Lon. 11° 12' E Alt. 40 metri s.l.m.

poco_nuvoloso Europe/Rome

27 °C

Poco Nuvoloso

Temp. 24 Ore

23 °C

34 °C

Sud-Est

16.7 Km/h

Dew point 21 °C

Umidità 69 %

Visibilità  10 Km

Il sole sorge alle ore 06:26

Il sole tramonta alle ore 20:10

Data e Ora Cielo e Fenomeni T °C DP °C Um. % Pres. hPa Vis. km Vento km/h
Oggi h: 19:50 poco_nuvoloso Poco Nuvoloso 27 21 69 1018 10 SE 16.7
Oggi h: 19:20 poco_nuvoloso Poco Nuvoloso 28 20 61 1018 10 E 13
Oggi h: 18:50 molto_nuvoloso Molto Nuvoloso 29 19 54 1017 10 N/NE 20.3
Oggi h: 18:20 molto_nuvoloso Molto Nuvoloso 28 20 61 1018 10 NE 20.3
Oggi h: 17:50 molto_nuvoloso Molto Nuvoloso 28 20 61 1018 10 NE 16.7
Oggi h: 17:20 coperto_pioggia Pioggia Debole Temporale nelle Vicinanze 28 21 65 1018 10 E/NE 20.3
Oggi h: 16:50 nuvoloso_temporali Temporale nelle Vicinanze 30 20 55 1016 10 E/NE 16.7
Oggi h: 16:20 nuvoloso_temporali Temporale nelle Vicinanze 31 20 52 1017 10 E/NE 20.3
Oggi h: 15:50 nuvoloso_temporali Temporale nelle Vicinanze 29 20 58 1017 10 E 22.2
Oggi h: 15:20 nuvoloso_temporali Temporale nelle Vicinanze 34 18 38 1017 10 N/NO 18.5
Oggi h: 14:50 poco_nuvoloso Poco Nuvoloso 34 18 38 1017 10 N/NE 13
Oggi h: 14:20 nuvoloso Nuvoloso 33 18 41 1018 10 E/SE 11.1
Oggi h: 13:50 nuvoloso Nuvoloso 33 18 41 1018 10 N/NE 14.8
Oggi h: 13:20 nuvoloso Nuvoloso 31 18 45 1018 10 N 9.3
Oggi h: 12:50 nuvoloso Nuvoloso 31 18 45 1018 10 N 7.4
Oggi h: 12:20 nuvoloso Nuvoloso 31 18 45 1018 10 N 11.1
Oggi h: 11:50 nuvoloso Nuvoloso 30 19 51 1018 10 N/NE 18.5
Oggi h: 11:20 nuvoloso Nuvoloso 31 18 45 1018 10 N/NE 22.2
Oggi h: 10:50 nuvoloso Nuvoloso 31 19 48 1018 10 N/NE 14.8
Oggi h: 10:20 nuvoloso Nuvoloso 31 19 48 1018 10 N 5.5
Oggi h: 09:50 nuvoloso Nuvoloso 29 19 54 1018 10 N 5.5
Oggi h: 09:20 nuvoloso Nuvoloso 28 18 54 1018 10 SO 7.4
Oggi h: 08:50 nuvoloso Nuvoloso 28 18 54 1018 10 SO 7.4
Oggi h: 08:20 nuvoloso Nuvoloso 26 18 61 1018 10 N 5.5
Oggi h: 07:50 nuvoloso Nuvoloso 25 18 65 1018 10 N 3.7
Oggi h: 07:20 nuvoloso Nuvoloso 25 18 65 1018 10 N 3.7
Oggi h: 06:50 nuvoloso Nuvoloso 24 18 69 1017 10 N 3.7
Oggi h: 06:20 nuvoloso Nuvoloso 23 18 73 1017 10 N 3.7
Oggi h: 05:50 sereno Sereno 24 18 69 1017 10 N 5.5
Oggi h: 05:20 sereno Sereno 24 18 69 1017 10 N 3.7
Oggi h: 04:50 sereno Sereno 25 18 65 1017 10 S/SO 9.3
Oggi h: 04:20 sereno Sereno 25 18 65 1017 10 S/SO 9.3
Oggi h: 03:20 sereno Sereno 25 18 65 1017 10 S 7.4
Oggi h: 02:50 sereno Sereno 24 18 69 1017 10 N 3.7
Oggi h: 02:20 sereno Sereno 24 18 69 1017 10 N 5.5
Oggi h: 01:50 sereno Sereno 24 18 69 1017 10 N 3.7
Oggi h: 01:20 sereno Sereno 25 18 65 1018 10 N 5.5
Oggi h: 00:20 sereno Sereno 27 18 57 1017 10 SO 9.3
Ieri h: 23:50 sereno Sereno 27 18 57 1017 10 N 5.5
Ieri h: 23:20 sereno Sereno 27 18 57 1017 10 S/SO 7.4
Ieri h: 22:50 sereno Sereno 28 19 58 1017 10 S/SO 11.1
Ieri h: 22:20 sereno Sereno 28 20 61 1016 10 S 7.4
Ieri h: 21:50 sereno Sereno 29 20 58 1016 10 O 9.3
Ieri h: 21:20 sereno Sereno 30 20 55 1016 10 O 11.1
Ieri h: 20:50 poco_nuvoloso Poco Nuvoloso 30 20 55 1016 10 O/NO 11.1